createdAt,value
2023-03-30T00:00:28.340Z,74.29
2023-03-30T00:02:55.785Z,74.42
2023-03-30T00:05:23.878Z,74.57
2023-03-30T00:07:51.558Z,74.66
2023-03-30T00:10:19.140Z,74.78
2023-03-30T00:12:48.220Z,75.36
2023-03-30T00:15:16.578Z,75.18
2023-03-30T00:17:45.698Z,74.77
2023-03-30T00:20:13.956Z,75.16
2023-03-30T00:22:42.141Z,75.14
2023-03-30T00:25:10.707Z,75.43
2023-03-30T00:27:38.778Z,74.88
2023-03-30T00:30:07.115Z,75.32
2023-03-30T00:32:35.057Z,75.57
2023-03-30T00:35:05.270Z,76.43
2023-03-30T00:37:33.195Z,76.13
2023-03-30T00:40:00.909Z,76.42
2023-03-30T00:42:28.162Z,76.13
2023-03-30T00:45:26.278Z,76.17
2023-03-30T00:47:57.377Z,76.13
2023-03-30T00:50:29.915Z,75.74
2023-03-30T00:52:58.694Z,76.03
2023-03-30T00:55:28.911Z,75.99
2023-03-30T00:57:56.434Z,75.72
2023-03-30T01:00:23.911Z,75.33
2023-03-30T01:02:55.805Z,75.49
2023-03-30T01:05:24.074Z,75.59
2023-03-30T01:07:53.192Z,75.32
2023-03-30T01:10:21.414Z,75.52
2023-03-30T01:12:49.193Z,76.04
2023-03-30T01:15:17.703Z,75.95
2023-03-30T01:17:54.909Z,75.85
2023-03-30T01:20:40.409Z,75.63
2023-03-30T01:23:18.696Z,75.72
2023-03-30T01:26:01.325Z,76.47
2023-03-30T01:28:40.232Z,76.37
2023-03-30T01:31:30.430Z,76.65
2023-03-30T01:34:15.450Z,76.50
2023-03-30T01:37:00.453Z,76.30
2023-03-30T01:39:35.042Z,76.94
2023-03-30T01:42:09.232Z,76.76
2023-03-30T01:44:42.611Z,76.98
2023-03-30T01:47:16.201Z,76.75
2023-03-30T01:49:46.767Z,77.05
2023-03-30T01:52:17.275Z,77.28
2023-03-30T01:54:48.439Z,77.55
2023-03-30T01:57:17.604Z,77.50
2023-03-30T01:59:49.369Z,77.60
2023-03-30T02:02:19.399Z,77.72
2023-03-30T02:04:48.562Z,77.48
2023-03-30T02:07:18.447Z,77.54
2023-03-30T02:09:49.265Z,77.47
2023-03-30T02:12:17.881Z,77.95
2023-03-30T02:14:45.530Z,77.93
2023-03-30T02:17:15.188Z,78.06
2023-03-30T02:19:46.182Z,78.05
2023-03-30T02:22:13.803Z,78.06
2023-03-30T02:24:41.950Z,78.20
2023-03-30T02:27:10.856Z,78.44
2023-03-30T02:29:40.050Z,78.75
2023-03-30T02:32:07.686Z,79.02
2023-03-30T02:34:44.616Z,79.24
2023-03-30T02:37:19.669Z,79.05
2023-03-30T02:39:56.725Z,79.04
2023-03-30T02:42:35.328Z,78.80
2023-03-30T02:45:10.535Z,78.78
2023-03-30T02:47:42.936Z,79.58
2023-03-30T02:50:17.904Z,79.48
2023-03-30T02:52:52.392Z,79.36
2023-03-30T02:55:22.225Z,79.23
2023-03-30T02:57:56.222Z,78.84
2023-03-30T03:00:26.982Z,79.18
2023-03-30T03:02:57.359Z,78.89
2023-03-30T03:05:26.179Z,78.45
2023-03-30T03:07:53.641Z,78.81
2023-03-30T03:10:21.838Z,78.81
2023-03-30T03:12:49.118Z,78.50
2023-03-30T03:15:17.706Z,78.20
2023-03-30T03:17:45.275Z,78.20
2023-03-30T03:20:13.706Z,78.38
2023-03-30T03:22:40.980Z,78.09
2023-03-30T03:25:08.556Z,78.12
2023-03-30T03:27:36.468Z,77.99
2023-03-30T03:30:04.289Z,78.04
2023-03-30T03:32:32.928Z,78.04
2023-03-30T03:35:00.662Z,77.96
2023-03-30T03:37:27.934Z,78.00
2023-03-30T03:39:55.214Z,78.01
2023-03-30T03:42:22.489Z,77.70
2023-03-30T03:44:49.738Z,77.51
2023-03-30T03:47:17.009Z,77.50
2023-03-30T03:49:45.599Z,77.97
2023-03-30T03:52:12.893Z,77.82
2023-03-30T03:54:40.206Z,77.86
2023-03-30T03:57:07.514Z,77.84
2023-03-30T03:59:34.832Z,77.88
2023-03-30T04:02:02.107Z,78.16
2023-03-30T04:04:29.479Z,78.24
2023-03-30T04:06:58.109Z,78.84
2023-03-30T04:09:25.954Z,78.84
2023-03-30T04:11:53.219Z,79.24
2023-03-30T04:14:20.592Z,79.20
2023-03-30T04:16:49.001Z,79.63
2023-03-30T04:19:16.830Z,79.61
2023-03-30T04:21:47.078Z,79.25
2023-03-30T04:24:15.653Z,79.63
2023-03-30T04:26:48.684Z,80.01
2023-03-30T04:29:16.688Z,80.18
2023-03-30T04:31:46.920Z,80.56
2023-03-30T04:34:14.546Z,80.05
2023-03-30T04:36:43.321Z,80.89
2023-03-30T04:39:11.210Z,81.18
2023-03-30T04:41:41.699Z,80.62
2023-03-30T04:44:10.361Z,80.74
2023-03-30T04:46:38.194Z,80.83
2023-03-30T04:49:05.617Z,80.96
2023-03-30T04:51:32.912Z,81.01
2023-03-30T04:54:00.250Z,80.69
2023-03-30T04:56:27.812Z,80.80
2023-03-30T04:58:56.886Z,81.37
2023-03-30T05:01:24.301Z,80.79
2023-03-30T05:03:52.003Z,81.17
2023-03-30T05:06:19.313Z,81.01
2023-03-30T05:08:46.563Z,81.26
2023-03-30T05:11:13.863Z,81.26
2023-03-30T05:13:41.802Z,80.92
2023-03-30T05:16:10.953Z,81.03
2023-03-30T05:18:38.802Z,80.50
2023-03-30T05:21:06.448Z,80.47
2023-03-30T05:23:33.858Z,80.24
2023-03-30T05:26:01.490Z,80.07
2023-03-30T05:28:31.113Z,80.53
2023-03-30T05:30:59.687Z,80.46
2023-03-30T05:33:28.316Z,80.25
2023-03-30T05:35:55.900Z,80.13
2023-03-30T05:38:23.220Z,79.91
2023-03-30T05:40:52.793Z,79.88
2023-03-30T05:43:20.105Z,79.61
2023-03-30T05:45:47.698Z,79.75
2023-03-30T05:48:14.974Z,79.95
2023-03-30T05:50:44.113Z,79.77
2023-03-30T05:53:11.738Z,79.85
2023-03-30T05:55:39.132Z,79.60
2023-03-30T05:58:06.563Z,79.11
2023-03-30T06:00:36.516Z,78.22
2023-03-30T06:03:04.374Z,78.00
2023-03-30T06:05:33.812Z,77.87
2023-03-30T06:08:04.014Z,77.66
2023-03-30T06:10:31.610Z,77.53
2023-03-30T06:12:58.844Z,77.05
2023-03-30T06:15:27.070Z,77.16
2023-03-30T06:17:54.539Z,76.58
2023-03-30T06:20:24.485Z,76.40
2023-03-30T06:22:52.309Z,76.46
2023-03-30T06:25:21.043Z,76.24
2023-03-30T06:27:48.338Z,75.82
2023-03-30T06:30:16.242Z,75.28
2023-03-30T06:32:43.588Z,74.77
2023-03-30T06:35:13.271Z,74.29
2023-03-30T06:37:40.613Z,73.86
2023-03-30T06:40:12.824Z,73.08
2023-03-30T06:42:41.674Z,72.98
2023-03-30T06:45:10.216Z,73.64
2023-03-30T06:47:37.547Z,73.21
2023-03-30T06:50:05.061Z,73.50
2023-03-30T06:52:34.776Z,73.53
2023-03-30T06:55:02.048Z,73.03
2023-03-30T06:57:29.427Z,73.28
2023-03-30T06:59:58.049Z,73.74
2023-03-30T07:02:25.645Z,73.56
2023-03-30T07:04:53.235Z,73.49
2023-03-30T07:07:20.888Z,73.45
2023-03-30T07:09:48.195Z,73.96
2023-03-30T07:12:15.500Z,73.96
2023-03-30T07:14:42.766Z,73.92
2023-03-30T07:17:11.886Z,74.05
2023-03-30T07:19:39.457Z,73.54
2023-03-30T07:22:06.879Z,72.98
2023-03-30T07:24:34.186Z,72.08
2023-03-30T07:27:01.584Z,71.38
2023-03-30T07:29:29.315Z,71.13
2023-03-30T07:31:57.164Z,69.62
2023-03-30T07:34:25.792Z,69.41
2023-03-30T07:36:54.687Z,68.76
2023-03-30T07:39:22.142Z,68.57
2023-03-30T07:41:49.395Z,66.85
2023-03-30T07:44:16.666Z,65.92
2023-03-30T07:46:44.087Z,65.20
2023-03-30T07:49:11.544Z,64.55
2023-03-30T07:51:40.523Z,64.74
2023-03-30T07:54:10.205Z,64.88
2023-03-30T07:56:39.424Z,64.83
2023-03-30T07:59:07.745Z,65.25
2023-03-30T08:01:35.331Z,65.56
2023-03-30T08:04:02.726Z,65.65
2023-03-30T08:06:30.368Z,65.53
2023-03-30T08:08:58.932Z,65.91
2023-03-30T08:11:26.419Z,65.51
2023-03-30T08:13:53.688Z,64.96
2023-03-30T08:16:21.013Z,64.81
2023-03-30T08:18:48.434Z,64.45
2023-03-30T08:21:16.015Z,63.15
2023-03-30T08:23:43.293Z,62.78
2023-03-30T08:26:11.876Z,62.51
2023-03-30T08:28:39.227Z,62.72
2023-03-30T08:31:07.220Z,63.00
2023-03-30T08:33:35.752Z,62.96
2023-03-30T08:36:03.339Z,63.52
2023-03-30T08:38:30.876Z,63.37
2023-03-30T08:40:58.164Z,63.72
2023-03-30T08:43:37.811Z,63.57
2023-03-30T08:46:05.323Z,63.17
2023-03-30T08:48:37.420Z,62.85
2023-03-30T08:51:09.171Z,62.53
2023-03-30T08:53:36.410Z,62.73
2023-03-30T08:56:07.144Z,63.23
2023-03-30T08:58:41.128Z,62.95
2023-03-30T09:01:14.110Z,63.91
2023-03-30T09:03:43.533Z,64.50
2023-03-30T09:06:13.631Z,64.69
2023-03-30T09:08:41.505Z,65.51
2023-03-30T09:11:12.652Z,66.01
2023-03-30T09:13:41.931Z,66.49
2023-03-30T09:16:14.606Z,66.71
2023-03-30T09:18:42.962Z,67.47
2023-03-30T09:21:11.872Z,67.67
2023-03-30T09:23:39.679Z,68.15
2023-03-30T09:26:11.223Z,69.59
2023-03-30T09:28:44.255Z,70.18
2023-03-30T09:31:16.072Z,71.33
2023-03-30T09:33:46.368Z,72.82
2023-03-30T09:36:17.779Z,73.53
2023-03-30T09:38:45.486Z,73.48
2023-03-30T09:41:25.751Z,74.80
2023-03-30T09:43:54.409Z,76.01
2023-03-30T09:46:21.735Z,74.89
2023-03-30T09:48:50.080Z,75.60
2023-03-30T09:51:22.340Z,76.60
2023-03-30T09:53:50.555Z,78.35
2023-03-30T09:56:20.157Z,77.83
2023-03-30T09:58:47.451Z,79.63
2023-03-30T10:01:18.319Z,79.23
2023-03-30T10:03:46.502Z,79.15
2023-03-30T10:06:16.873Z,81.81
2023-03-30T10:08:45.148Z,81.54
2023-03-30T10:11:13.065Z,81.50
2023-03-30T10:13:42.583Z,81.19
2023-03-30T10:16:13.832Z,81.35
2023-03-30T10:18:44.908Z,81.53
2023-03-30T10:21:18.800Z,80.97
2023-03-30T10:23:47.226Z,81.61
2023-03-30T10:26:18.965Z,81.44
2023-03-30T10:28:52.817Z,81.07
2023-03-30T10:31:21.087Z,81.80
2023-03-30T10:33:50.007Z,80.94
2023-03-30T10:36:19.691Z,81.44
2023-03-30T10:38:47.206Z,82.70
2023-03-30T10:41:16.365Z,84.47
2023-03-30T10:43:44.738Z,84.46
2023-03-30T10:46:20.164Z,84.79
2023-03-30T10:48:54.341Z,85.75
2023-03-30T10:51:26.257Z,84.71
2023-03-30T10:53:59.948Z,86.19
2023-03-30T10:56:31.678Z,84.99
2023-03-30T10:59:08.005Z,85.75
2023-03-30T11:01:39.223Z,85.05
2023-03-30T11:04:22.633Z,84.51
2023-03-30T11:06:53.042Z,83.11
2023-03-30T11:09:23.125Z,82.14
2023-03-30T11:11:52.272Z,82.76
2023-03-30T11:14:22.134Z,81.98
2023-03-30T11:16:54.090Z,81.65
2023-03-30T11:19:25.501Z,81.24
2023-03-30T11:21:57.362Z,80.02
2023-03-30T11:24:25.826Z,82.18
2023-03-30T11:26:56.586Z,83.32
2023-03-30T11:29:28.416Z,83.38
2023-03-30T11:32:00.602Z,83.40
2023-03-30T11:34:32.201Z,82.61
2023-03-30T11:37:01.911Z,82.05
2023-03-30T11:39:32.551Z,82.07
2023-03-30T11:42:05.000Z,82.55
2023-03-30T11:44:32.398Z,81.80
2023-03-30T11:47:05.220Z,82.22
2023-03-30T11:49:39.830Z,80.34
2023-03-30T11:52:17.132Z,79.36
2023-03-30T11:55:04.233Z,77.11
2023-03-30T11:57:35.424Z,76.84
2023-03-30T12:00:10.789Z,75.56
2023-03-30T12:02:42.309Z,72.77
2023-03-30T12:05:17.578Z,72.75
2023-03-30T12:07:50.973Z,70.90
2023-03-30T12:10:21.476Z,70.85
2023-03-30T12:12:51.882Z,70.65
2023-03-30T12:15:28.362Z,70.10
2023-03-30T12:17:58.097Z,70.76
2023-03-30T12:20:32.952Z,70.12
2023-03-30T12:23:03.280Z,70.48
2023-03-30T12:25:34.788Z,69.36
2023-03-30T12:28:11.048Z,69.71
2023-03-30T12:30:48.380Z,70.21
2023-03-30T12:33:19.133Z,70.53
2023-03-30T12:35:55.506Z,71.22
2023-03-30T12:38:25.569Z,70.35
2023-03-30T12:41:04.350Z,70.27
2023-03-30T12:43:37.020Z,69.15
2023-03-30T12:46:08.278Z,67.09
2023-03-30T12:48:42.212Z,66.91
2023-03-30T12:51:17.997Z,63.61
2023-03-30T12:53:55.988Z,61.91
2023-03-30T12:56:28.776Z,60.34
2023-03-30T12:59:14.684Z,60.28
2023-03-30T13:01:51.681Z,59.98
2023-03-30T13:04:22.420Z,58.66
2023-03-30T13:06:53.960Z,56.70
2023-03-30T13:09:35.236Z,57.45
2023-03-30T13:12:22.211Z,57.41
2023-03-30T13:14:58.122Z,58.85
2023-03-30T13:17:27.083Z,56.08
2023-03-30T13:20:18.648Z,56.75
2023-03-30T13:23:00.717Z,56.43
2023-03-30T13:25:30.271Z,56.89
2023-03-30T13:27:58.770Z,56.07
2023-03-30T13:30:28.855Z,56.84
2023-03-30T13:33:01.378Z,56.34
2023-03-30T13:35:31.972Z,57.59
2023-03-30T13:38:08.515Z,57.24
2023-03-30T13:40:46.410Z,57.07
2023-03-30T13:43:33.371Z,57.62
2023-03-30T13:46:15.681Z,57.64
2023-03-30T13:48:51.701Z,57.35
2023-03-30T13:51:20.640Z,57.70
2023-03-30T13:53:51.496Z,56.67
2023-03-30T13:56:18.859Z,56.91
2023-03-30T13:58:49.433Z,56.43
2023-03-30T14:01:22.506Z,56.32
2023-03-30T14:03:50.802Z,57.49
2023-03-30T14:06:19.059Z,57.32
2023-03-30T14:08:47.705Z,55.47
2023-03-30T14:11:18.391Z,56.46
2023-03-30T14:13:46.433Z,54.87
2023-03-30T14:16:17.792Z,55.02
2023-03-30T14:18:45.175Z,55.11
2023-03-30T14:21:15.563Z,54.49
2023-03-30T14:23:45.789Z,55.16
2023-03-30T14:26:14.522Z,54.75
2023-03-30T14:28:43.668Z,54.90
2023-03-30T14:31:15.513Z,53.62
2023-03-30T14:33:42.897Z,54.44
2023-03-30T14:36:12.536Z,54.49
2023-03-30T14:38:40.501Z,55.09
2023-03-30T14:41:08.700Z,55.33
2023-03-30T14:43:39.445Z,55.46
2023-03-30T14:46:10.742Z,55.30
2023-03-30T14:48:38.980Z,54.86
2023-03-30T14:51:09.511Z,54.96
2023-03-30T14:53:36.997Z,55.27
2023-03-30T14:56:05.091Z,54.74
2023-03-30T14:58:33.355Z,54.73
2023-03-30T15:01:09.172Z,54.88
2023-03-30T15:03:39.563Z,55.39
2023-03-30T15:06:07.816Z,55.01
2023-03-30T15:08:37.214Z,55.17
2023-03-30T15:11:11.886Z,55.36
2023-03-30T15:13:41.646Z,55.18
2023-03-30T15:16:09.178Z,55.57
2023-03-30T15:18:38.112Z,56.43
2023-03-30T15:21:05.801Z,56.27
2023-03-30T15:23:36.332Z,56.92
2023-03-30T15:26:05.076Z,68.77
2023-03-30T15:28:34.902Z,70.85
2023-03-30T15:31:02.249Z,76.28
2023-03-30T15:33:32.130Z,73.94
2023-03-30T15:36:08.209Z,74.01
2023-03-30T15:38:42.404Z,76.59
2023-03-30T15:41:13.456Z,71.73
2023-03-30T15:43:52.818Z,72.65
2023-03-30T15:46:20.316Z,74.31
2023-03-30T15:48:48.913Z,72.39
2023-03-30T15:51:20.570Z,72.73
2023-03-30T15:53:50.256Z,69.74
2023-03-30T15:56:19.741Z,68.51
2023-03-30T15:58:47.135Z,67.37
2023-03-30T16:01:15.761Z,67.07
2023-03-30T16:03:50.734Z,69.42
2023-03-30T16:06:20.626Z,72.27
2023-03-30T16:08:47.897Z,76.36
2023-03-30T16:11:16.862Z,78.87
2023-03-30T16:13:45.070Z,82.74
2023-03-30T16:16:13.853Z,83.18
2023-03-30T16:18:42.587Z,83.62
2023-03-30T16:21:10.795Z,85.34
2023-03-30T16:23:39.391Z,86.26
2023-03-30T16:26:07.999Z,85.53
2023-03-30T16:28:35.388Z,85.65
2023-03-30T16:31:05.902Z,85.41
2023-03-30T16:33:33.357Z,85.78
2023-03-30T16:36:00.838Z,84.69
2023-03-30T16:38:28.319Z,86.96
2023-03-30T16:40:58.192Z,85.66
2023-03-30T16:43:27.127Z,86.52
2023-03-30T16:45:54.442Z,86.00
2023-03-30T16:48:21.891Z,86.22
2023-03-30T16:50:51.057Z,85.57
2023-03-30T16:53:21.098Z,86.31
2023-03-30T16:55:48.694Z,87.10
2023-03-30T16:58:17.384Z,86.57
2023-03-30T17:00:46.374Z,86.99
2023-03-30T17:03:13.904Z,88.05
2023-03-30T17:05:41.735Z,88.32
2023-03-30T17:08:15.280Z,88.90
2023-03-30T17:10:42.755Z,86.84
2023-03-30T17:13:11.855Z,87.50
2023-03-30T17:15:40.716Z,87.84
2023-03-30T17:18:09.788Z,85.75
2023-03-30T17:20:38.253Z,85.84
2023-03-30T17:23:05.558Z,86.30
2023-03-30T17:25:35.990Z,84.35
2023-03-30T17:28:05.111Z,82.49
2023-03-30T17:30:34.735Z,80.58
2023-03-30T17:33:03.525Z,79.20
2023-03-30T17:35:30.850Z,77.85
2023-03-30T17:37:58.166Z,80.11
2023-03-30T17:40:26.921Z,80.00
2023-03-30T17:42:54.260Z,80.01
2023-03-30T17:45:22.400Z,79.63
2023-03-30T17:47:49.734Z,77.96
2023-03-30T17:50:23.546Z,78.62
2023-03-30T17:52:51.392Z,77.26
2023-03-30T17:55:19.331Z,77.64
2023-03-30T17:57:46.618Z,77.75
2023-03-30T18:00:17.179Z,77.86
2023-03-30T18:02:44.495Z,77.19
2023-03-30T18:05:11.963Z,77.03
2023-03-30T18:07:40.857Z,76.90
2023-03-30T18:10:15.982Z,77.28
2023-03-30T18:12:43.553Z,77.23
2023-03-30T18:15:11.320Z,77.27
2023-03-30T18:17:38.914Z,77.03
2023-03-30T18:20:20.624Z,76.92
2023-03-30T18:22:49.470Z,77.90
2023-03-30T18:25:29.330Z,77.67
2023-03-30T18:27:59.458Z,77.18
2023-03-30T18:30:28.098Z,76.74
2023-03-30T18:32:55.880Z,79.01
2023-03-30T18:35:24.466Z,78.56
2023-03-30T18:37:53.989Z,77.88
2023-03-30T18:40:23.160Z,79.18
2023-03-30T18:42:50.767Z,79.67
2023-03-30T18:45:19.712Z,80.08
2023-03-30T18:47:47.421Z,79.03
2023-03-30T18:50:16.294Z,78.38
2023-03-30T18:52:43.610Z,78.60
2023-03-30T18:55:12.884Z,78.60
2023-03-30T18:57:40.616Z,79.22
2023-03-30T19:00:13.905Z,79.67
2023-03-30T19:02:41.270Z,79.82
2023-03-30T19:05:10.002Z,79.33
2023-03-30T19:07:37.259Z,79.96
2023-03-30T19:10:04.951Z,80.12
2023-03-30T19:12:33.669Z,80.19
2023-03-30T19:15:01.070Z,80.32
2023-03-30T19:17:28.345Z,80.95
2023-03-30T19:19:55.838Z,79.57
2023-03-30T19:22:23.142Z,79.71
2023-03-30T19:24:50.740Z,80.90
2023-03-30T19:27:18.117Z,80.69
2023-03-30T19:29:46.819Z,80.10
2023-03-30T19:32:14.189Z,80.08
2023-03-30T19:34:41.422Z,78.69
2023-03-30T19:37:08.765Z,78.54
2023-03-30T19:39:36.356Z,79.69
2023-03-30T19:42:03.690Z,79.67
2023-03-30T19:44:31.080Z,80.36
2023-03-30T19:46:59.628Z,80.98
2023-03-30T19:49:26.945Z,80.67
2023-03-30T19:51:54.225Z,80.40
2023-03-30T19:54:21.543Z,80.46
2023-03-30T19:56:48.849Z,80.36
2023-03-30T19:59:17.177Z,81.30
2023-03-30T20:01:46.251Z,79.60
2023-03-30T20:04:14.943Z,80.83
2023-03-30T20:06:42.734Z,81.46
2023-03-30T20:09:10.129Z,82.01
2023-03-30T20:11:37.418Z,81.57
2023-03-30T20:14:04.791Z,81.05
2023-03-30T20:16:35.049Z,81.78
2023-03-30T20:19:12.978Z,81.35
2023-03-30T20:21:47.780Z,80.47
2023-03-30T20:24:15.386Z,80.70
2023-03-30T20:26:42.682Z,80.79
2023-03-30T20:29:09.973Z,80.66
2023-03-30T20:31:37.249Z,82.15
2023-03-30T20:34:04.654Z,81.43
2023-03-30T20:36:32.114Z,79.97
2023-03-30T20:39:01.053Z,79.13
2023-03-30T20:41:29.895Z,78.66
2023-03-30T20:43:57.764Z,78.29
2023-03-30T20:46:34.794Z,77.99
2023-03-30T20:49:02.730Z,79.18
2023-03-30T20:51:30.049Z,78.66
2023-03-30T20:53:57.526Z,78.78
2023-03-30T20:56:27.841Z,78.33
2023-03-30T20:58:55.223Z,78.25
2023-03-30T21:01:25.405Z,78.87
2023-03-30T21:03:54.258Z,78.57
2023-03-30T21:06:23.765Z,76.97
2023-03-30T21:08:51.145Z,78.03
2023-03-30T21:11:18.418Z,78.50
2023-03-30T21:13:47.062Z,78.05
2023-03-30T21:16:14.396Z,78.61
2023-03-30T21:18:41.684Z,79.50
2023-03-30T21:21:09.073Z,79.99
2023-03-30T21:23:38.326Z,80.34
2023-03-30T21:26:07.511Z,80.30
2023-03-30T21:28:35.520Z,80.19
2023-03-30T21:31:05.724Z,80.56
2023-03-30T21:33:33.260Z,80.41
2023-03-30T21:36:00.620Z,80.21
2023-03-30T21:38:28.769Z,80.64
2023-03-30T21:41:00.110Z,80.25
2023-03-30T21:43:28.372Z,80.66
2023-03-30T21:45:56.452Z,80.42
2023-03-30T21:48:25.617Z,81.39
2023-03-30T21:50:58.209Z,81.26
2023-03-30T21:53:25.903Z,81.43
2023-03-30T21:55:53.305Z,81.52
2023-03-30T21:58:20.649Z,81.85
2023-03-30T22:00:53.434Z,81.84
2023-03-30T22:03:29.850Z,81.40
2023-03-30T22:05:58.405Z,81.66
2023-03-30T22:08:25.892Z,81.30
2023-03-30T22:10:56.311Z,81.16
2023-03-30T22:13:23.679Z,81.19
2023-03-30T22:15:56.323Z,80.92
2023-03-30T22:18:23.584Z,81.17
2023-03-30T22:20:52.527Z,81.42
2023-03-30T22:23:20.029Z,81.24
2023-03-30T22:25:47.523Z,80.93
2023-03-30T22:28:14.797Z,81.05
2023-03-30T22:30:42.531Z,81.41
2023-03-30T22:33:10.289Z,81.02
2023-03-30T22:35:38.241Z,81.88
2023-03-30T22:38:07.077Z,81.15
2023-03-30T22:40:35.723Z,81.48
2023-03-30T22:43:03.040Z,81.19
2023-03-30T22:45:30.437Z,80.46
2023-03-30T22:47:58.340Z,79.78
2023-03-30T22:50:26.322Z,78.70
2023-03-30T22:52:54.069Z,78.52
2023-03-30T22:55:23.523Z,79.05
2023-03-30T22:57:52.209Z,77.98
2023-03-30T23:00:21.049Z,77.76
2023-03-30T23:02:49.078Z,78.36
2023-03-30T23:05:16.952Z,78.47
2023-03-30T23:07:45.985Z,77.93
2023-03-30T23:10:15.285Z,78.79
2023-03-30T23:12:44.221Z,78.78
2023-03-30T23:15:11.917Z,77.97
2023-03-30T23:17:39.710Z,78.22
2023-03-30T23:20:10.332Z,77.69
2023-03-30T23:22:37.942Z,77.63
2023-03-30T23:25:07.433Z,77.12
2023-03-30T23:27:34.735Z,78.02
2023-03-30T23:30:04.045Z,77.69
2023-03-30T23:32:31.334Z,78.19
2023-03-30T23:34:58.633Z,77.42
2023-03-30T23:37:26.229Z,77.12
2023-03-30T23:39:53.502Z,77.29
2023-03-30T23:42:21.163Z,77.30
2023-03-30T23:44:48.431Z,76.90
2023-03-30T23:47:17.186Z,77.20
2023-03-30T23:49:44.426Z,77.41
2023-03-30T23:52:11.691Z,76.52
2023-03-30T23:54:40.866Z,76.27
2023-03-30T23:57:08.203Z,76.10
2023-03-30T23:59:36.055Z,76.33
